createdAt,value
2023-02-11T00:00:12.821Z,9.60
2023-02-11T00:03:55.092Z,9.60
2023-02-11T00:07:37.320Z,9.70
2023-02-11T00:11:21.038Z,9.60
2023-02-11T00:15:03.494Z,9.60
2023-02-11T00:18:45.524Z,9.60
2023-02-11T00:22:27.422Z,9.60
2023-02-11T00:26:14.976Z,9.60
2023-02-11T00:29:56.938Z,9.60
2023-02-11T00:33:38.826Z,9.70
2023-02-11T00:37:20.910Z,9.60
2023-02-11T00:41:02.749Z,9.60
2023-02-11T00:44:44.507Z,9.60
2023-02-11T00:48:26.223Z,9.70
2023-02-11T00:52:07.987Z,9.70
2023-02-11T00:55:49.898Z,9.70
2023-02-11T00:59:31.869Z,9.70
2023-02-11T01:03:13.605Z,9.70
2023-02-11T01:06:55.344Z,9.70
2023-02-11T01:10:37.060Z,9.70
2023-02-11T01:14:18.912Z,9.70
2023-02-11T01:18:01.163Z,9.70
2023-02-11T01:21:42.986Z,9.70
2023-02-11T01:25:24.749Z,9.70
2023-02-11T01:29:06.594Z,9.70
2023-02-11T01:32:48.374Z,9.70
2023-02-11T01:36:30.452Z,9.70
2023-02-11T01:40:17.004Z,9.70
2023-02-11T01:43:58.724Z,9.70
2023-02-11T01:47:40.513Z,9.70
2023-02-11T01:51:30.993Z,9.70
2023-02-11T01:55:32.191Z,9.70
2023-02-11T01:59:20.393Z,9.70
2023-02-11T02:03:11.379Z,9.70
2023-02-11T02:07:01.612Z,9.80
2023-02-11T02:10:50.057Z,9.70
2023-02-11T02:14:31.765Z,9.70
2023-02-11T02:18:48.913Z,9.80
2023-02-11T02:23:06.238Z,9.80
2023-02-11T02:27:09.958Z,9.80
2023-02-11T02:31:07.063Z,9.80
2023-02-11T02:34:56.116Z,9.80
2023-02-11T02:38:46.729Z,9.80
2023-02-11T02:42:28.887Z,9.80
2023-02-11T02:46:32.318Z,9.80
2023-02-11T02:50:16.729Z,9.80
2023-02-11T02:54:42.657Z,9.80
2023-02-11T02:58:41.427Z,9.80
2023-02-11T03:02:31.413Z,9.80
2023-02-11T03:06:38.458Z,9.80
2023-02-11T03:10:31.526Z,9.80
2023-02-11T03:14:17.141Z,9.80
2023-02-11T03:18:01.909Z,9.80
2023-02-11T03:21:46.404Z,9.80
2023-02-11T03:25:34.940Z,9.80
2023-02-11T03:29:43.605Z,9.80
2023-02-11T03:33:32.572Z,9.80
2023-02-11T03:37:40.841Z,9.80
2023-02-11T03:41:24.282Z,9.80
2023-02-11T03:45:10.697Z,9.80
2023-02-11T03:48:55.866Z,9.80
2023-02-11T03:52:38.501Z,9.80
2023-02-11T03:56:24.998Z,9.80
2023-02-11T04:00:08.452Z,9.80
2023-02-11T04:03:50.172Z,9.80
2023-02-11T04:07:32.096Z,9.80
2023-02-11T04:11:13.823Z,9.80
2023-02-11T04:14:55.618Z,9.80
2023-02-11T04:18:37.372Z,9.80
2023-02-11T04:22:19.143Z,9.80
2023-02-11T04:26:00.872Z,9.80
2023-02-11T04:29:42.710Z,9.80
2023-02-11T04:33:24.744Z,9.80
2023-02-11T04:37:07.286Z,9.80
2023-02-11T04:40:48.997Z,9.80
2023-02-11T04:44:30.809Z,9.90
2023-02-11T04:48:12.521Z,9.90
2023-02-11T04:51:54.297Z,9.90
2023-02-11T04:55:36.014Z,9.80
2023-02-11T04:59:17.839Z,9.90
2023-02-11T05:02:59.556Z,9.90
2023-02-11T05:06:41.285Z,9.90
2023-02-11T05:10:23.168Z,9.90
2023-02-11T05:14:05.405Z,9.90
2023-02-11T05:17:47.240Z,9.90
2023-02-11T05:21:29.017Z,9.90
2023-02-11T05:25:10.959Z,9.90
2023-02-11T05:28:53.777Z,9.90
2023-02-11T05:32:35.588Z,9.90
2023-02-11T05:36:17.467Z,9.90
2023-02-11T05:39:59.212Z,9.90
2023-02-11T05:43:41.014Z,9.90
2023-02-11T05:47:22.872Z,9.90
2023-02-11T05:51:04.887Z,9.80
2023-02-11T05:54:46.662Z,9.90
2023-02-11T05:58:28.789Z,9.80
2023-02-11T06:02:10.722Z,9.80
2023-02-11T06:05:52.697Z,9.80
2023-02-11T06:09:34.596Z,9.80
2023-02-11T06:13:18.601Z,9.80
2023-02-11T06:17:00.961Z,9.80
2023-02-11T06:20:42.754Z,9.80
2023-02-11T06:24:51.083Z,9.80
2023-02-11T06:28:26.424Z,9.80
2023-02-11T06:32:15.870Z,9.80
2023-02-11T06:36:12.580Z,9.80
2023-02-11T06:39:54.496Z,9.80
2023-02-11T06:43:36.296Z,9.80
2023-02-11T06:47:18.172Z,9.80
2023-02-11T06:51:05.107Z,9.80
2023-02-11T06:54:46.869Z,9.80
2023-02-11T06:58:28.617Z,9.80
2023-02-11T07:02:11.026Z,9.70
2023-02-11T07:05:53.045Z,9.70
2023-02-11T07:09:35.061Z,9.70
2023-02-11T07:13:16.900Z,9.70
2023-02-11T07:16:58.896Z,9.70
2023-02-11T07:20:41.157Z,9.70
2023-02-11T07:24:23.333Z,9.70
2023-02-11T07:28:05.469Z,9.70
2023-02-11T07:31:47.508Z,9.70
2023-02-11T07:35:29.333Z,9.70
2023-02-11T07:39:11.260Z,9.70
2023-02-11T07:42:53.117Z,9.70
2023-02-11T07:46:35.728Z,9.70
2023-02-11T07:50:17.965Z,9.70
2023-02-11T07:54:00.731Z,9.70
2023-02-11T07:57:42.549Z,9.70
2023-02-11T08:01:28.242Z,9.70
2023-02-11T08:05:10.286Z,9.70
2023-02-11T08:08:52.332Z,9.70
2023-02-11T08:12:34.084Z,9.80
2023-02-11T08:16:21.655Z,9.70
2023-02-11T08:20:04.822Z,9.80
2023-02-11T08:23:47.176Z,9.80
2023-02-11T08:27:29.038Z,9.80
2023-02-11T08:31:17.515Z,9.80
2023-02-11T08:34:59.538Z,9.80
2023-02-11T08:38:43.717Z,9.90
2023-02-11T08:42:25.692Z,9.90
2023-02-11T08:46:08.909Z,9.90
2023-02-11T08:49:50.778Z,9.90
2023-02-11T08:53:32.646Z,9.90
2023-02-11T08:57:14.446Z,9.90
2023-02-11T09:00:56.320Z,9.90
2023-02-11T09:04:38.130Z,10.00
2023-02-11T09:08:20.959Z,10.00
2023-02-11T09:12:02.866Z,10.00
2023-02-11T09:15:47.506Z,10.00
2023-02-11T09:19:29.338Z,10.00
2023-02-11T09:23:11.251Z,10.10
2023-02-11T09:26:52.966Z,10.00
2023-02-11T09:30:36.175Z,10.10
2023-02-11T09:34:17.862Z,10.10
2023-02-11T09:37:59.602Z,10.10
2023-02-11T09:42:18.432Z,10.20
2023-02-11T09:46:00.435Z,10.20
2023-02-11T09:49:48.794Z,10.30
2023-02-11T09:53:37.315Z,10.40
2023-02-11T09:57:28.270Z,10.50
2023-02-11T10:01:41.891Z,10.50
2023-02-11T10:05:48.566Z,10.60
2023-02-11T10:09:48.943Z,10.70
2023-02-11T10:14:02.308Z,10.70
2023-02-11T10:17:49.780Z,10.80
2023-02-11T10:21:46.557Z,10.90
2023-02-11T10:25:45.467Z,10.90
2023-02-11T10:29:44.174Z,11.00
2023-02-11T10:33:28.315Z,11.10
2023-02-11T10:37:14.674Z,11.10
2023-02-11T10:40:56.662Z,11.10
2023-02-11T10:44:43.618Z,11.20
2023-02-11T10:48:53.743Z,11.20
2023-02-11T10:52:35.499Z,11.30
2023-02-11T10:56:29.129Z,11.30
2023-02-11T11:00:30.699Z,11.40
2023-02-11T11:04:30.668Z,11.40
2023-02-11T11:08:13.257Z,11.30
2023-02-11T11:11:55.054Z,11.40
2023-02-11T11:15:36.853Z,11.40
2023-02-11T11:19:24.041Z,11.40
2023-02-11T11:23:16.067Z,11.50
2023-02-11T11:27:01.404Z,11.50
2023-02-11T11:30:43.774Z,11.50
2023-02-11T11:34:30.288Z,11.60
2023-02-11T11:38:14.982Z,11.50
2023-02-11T11:42:27.300Z,11.50
2023-02-11T11:46:12.220Z,11.60
2023-02-11T11:50:36.520Z,11.60
2023-02-11T11:54:27.644Z,11.70
2023-02-11T11:58:28.255Z,11.80
2023-02-11T12:02:19.611Z,11.80
2023-02-11T12:06:58.116Z,11.90
2023-02-11T12:11:16.920Z,11.90
2023-02-11T12:15:07.946Z,12.00
2023-02-11T12:19:14.804Z,12.10
2023-02-11T12:23:02.275Z,12.10
2023-02-11T12:26:55.860Z,12.10
2023-02-11T12:31:27.677Z,12.20
2023-02-11T12:35:32.222Z,12.30
2023-02-11T12:39:37.132Z,12.30
2023-02-11T12:43:35.446Z,12.40
2023-02-11T12:47:34.649Z,12.40
2023-02-11T12:51:40.020Z,12.50
2023-02-11T12:55:28.420Z,12.50
2023-02-11T12:59:38.507Z,12.50
2023-02-11T13:03:33.721Z,12.40
2023-02-11T13:07:22.937Z,12.40
2023-02-11T13:11:14.426Z,12.40
2023-02-11T13:15:01.892Z,12.30
2023-02-11T13:18:56.233Z,12.20
2023-02-11T13:22:46.384Z,12.20
2023-02-11T13:26:50.324Z,12.10
2023-02-11T13:30:35.246Z,12.00
2023-02-11T13:34:46.634Z,12.00
2023-02-11T13:38:30.578Z,11.90
2023-02-11T13:42:18.968Z,11.90
2023-02-11T13:46:12.425Z,11.90
2023-02-11T13:49:54.362Z,11.90
2023-02-11T13:53:58.197Z,12.00
2023-02-11T13:57:41.401Z,12.00
2023-02-11T14:02:01.781Z,12.00
2023-02-11T14:06:28.263Z,12.10
2023-02-11T14:10:43.957Z,12.10
2023-02-11T14:14:30.685Z,12.20
2023-02-11T14:18:49.755Z,12.20
2023-02-11T14:22:46.865Z,12.30
2023-02-11T14:26:35.191Z,12.30
2023-02-11T14:30:33.680Z,12.40
2023-02-11T14:34:15.490Z,12.40
2023-02-11T14:38:22.197Z,12.40
2023-02-11T14:42:05.050Z,12.40
2023-02-11T14:45:51.481Z,12.40
2023-02-11T14:49:37.838Z,12.40
2023-02-11T14:53:23.504Z,12.40
2023-02-11T14:57:08.063Z,12.30
2023-02-11T15:00:55.568Z,12.30
2023-02-11T15:04:37.822Z,12.30
2023-02-11T15:08:19.607Z,12.30
2023-02-11T15:12:01.812Z,12.30
2023-02-11T15:15:46.522Z,12.30
2023-02-11T15:19:35.999Z,12.30
2023-02-11T15:23:29.697Z,12.30
2023-02-11T15:27:15.513Z,12.30
2023-02-11T15:31:15.802Z,12.30
2023-02-11T15:34:58.517Z,12.30
2023-02-11T15:38:41.305Z,12.30
2023-02-11T15:42:28.786Z,12.30
2023-02-11T15:46:14.718Z,12.30
2023-02-11T15:49:56.566Z,12.30
2023-02-11T15:53:42.277Z,12.30
2023-02-11T15:57:24.320Z,12.30
2023-02-11T16:01:08.630Z,12.30
2023-02-11T16:04:57.510Z,12.30
2023-02-11T16:08:41.551Z,12.20
2023-02-11T16:12:27.108Z,12.20
2023-02-11T16:16:20.399Z,12.20
2023-02-11T16:20:02.345Z,12.10
2023-02-11T16:23:51.605Z,12.10
2023-02-11T16:27:40.301Z,12.10
2023-02-11T16:31:22.192Z,12.10
2023-02-11T16:35:11.119Z,12.00
2023-02-11T16:38:52.874Z,12.00
2023-02-11T16:42:34.608Z,12.00
2023-02-11T16:46:16.404Z,12.00
2023-02-11T16:49:59.271Z,12.00
2023-02-11T16:53:41.207Z,11.90
2023-02-11T16:57:25.714Z,11.90
2023-02-11T17:01:08.441Z,11.90
2023-02-11T17:04:50.463Z,11.90
2023-02-11T17:08:32.259Z,11.80
2023-02-11T17:12:14.169Z,11.80
2023-02-11T17:15:55.979Z,11.80
2023-02-11T17:19:38.568Z,11.80
2023-02-11T17:23:21.695Z,11.80
2023-02-11T17:27:04.274Z,11.70
2023-02-11T17:30:46.259Z,11.70
2023-02-11T17:34:29.210Z,11.70
2023-02-11T17:38:11.091Z,11.70
2023-02-11T17:41:52.976Z,11.70
2023-02-11T17:45:35.928Z,11.70
2023-02-11T17:49:17.928Z,11.70
2023-02-11T17:52:59.763Z,11.60
2023-02-11T17:56:43.182Z,11.60
2023-02-11T18:00:24.973Z,11.60
2023-02-11T18:04:10.568Z,11.60
2023-02-11T18:07:52.367Z,11.60
2023-02-11T18:11:36.401Z,11.60
2023-02-11T18:15:18.659Z,11.60
2023-02-11T18:19:00.582Z,11.60
2023-02-11T18:22:44.189Z,11.60
2023-02-11T18:26:28.155Z,11.60
2023-02-11T18:30:16.237Z,11.60
2023-02-11T18:33:58.059Z,11.50
2023-02-11T18:37:41.037Z,11.50
2023-02-11T18:41:22.827Z,11.50
2023-02-11T18:45:07.134Z,11.50
2023-02-11T18:48:50.109Z,11.50
2023-02-11T18:52:33.097Z,11.50
2023-02-11T18:56:17.592Z,11.50
2023-02-11T18:59:59.784Z,11.40
2023-02-11T19:03:42.114Z,11.40
2023-02-11T19:07:25.211Z,11.40
2023-02-11T19:11:07.083Z,11.40
2023-02-11T19:14:48.801Z,11.40
2023-02-11T19:18:30.601Z,11.40
2023-02-11T19:22:12.511Z,11.40
2023-02-11T19:25:54.473Z,11.40
2023-02-11T19:29:36.584Z,11.40
2023-02-11T19:33:18.466Z,11.40
2023-02-11T19:37:01.590Z,11.40
2023-02-11T19:40:43.864Z,11.40
2023-02-11T19:44:25.605Z,11.40
2023-02-11T19:48:07.349Z,11.40
2023-02-11T19:51:50.834Z,11.40
2023-02-11T19:55:34.946Z,11.30
2023-02-11T19:59:16.720Z,11.30
2023-02-11T20:02:58.546Z,11.30
2023-02-11T20:06:40.423Z,11.20
2023-02-11T20:10:23.862Z,11.20
2023-02-11T20:14:10.586Z,11.20
2023-02-11T20:17:52.307Z,11.20
2023-02-11T20:21:34.058Z,11.20
2023-02-11T20:25:15.837Z,11.20
2023-02-11T20:28:59.048Z,11.20
2023-02-11T20:32:40.826Z,11.20
2023-02-11T20:36:24.535Z,11.10
2023-02-11T20:40:07.671Z,11.10
2023-02-11T20:43:53.088Z,11.10
2023-02-11T20:47:34.844Z,11.10
2023-02-11T20:51:19.698Z,11.00
2023-02-11T20:55:01.650Z,11.00
2023-02-11T20:58:43.495Z,11.00
2023-02-11T21:02:25.251Z,11.00
2023-02-11T21:06:08.023Z,11.00
2023-02-11T21:09:50.492Z,11.00
2023-02-11T21:13:32.313Z,11.00
2023-02-11T21:17:14.049Z,11.00
2023-02-11T21:20:55.963Z,11.00
2023-02-11T21:24:37.663Z,11.00
2023-02-11T21:28:23.895Z,11.00
2023-02-11T21:32:05.773Z,11.00
2023-02-11T21:35:47.726Z,11.00
2023-02-11T21:39:29.498Z,11.00
2023-02-11T21:43:11.333Z,11.00
2023-02-11T21:46:53.163Z,11.00
2023-02-11T21:50:37.771Z,10.90
2023-02-11T21:54:20.078Z,10.90
2023-02-11T21:58:02.258Z,11.00
2023-02-11T22:01:45.865Z,11.00
2023-02-11T22:05:27.665Z,10.90
2023-02-11T22:09:11.065Z,10.90
2023-02-11T22:12:52.821Z,10.90
2023-02-11T22:16:35.082Z,10.90
2023-02-11T22:20:17.592Z,10.90
2023-02-11T22:23:59.446Z,10.90
2023-02-11T22:27:41.222Z,10.90
2023-02-11T22:31:32.039Z,10.90
2023-02-11T22:35:13.920Z,10.90
2023-02-11T22:38:56.298Z,10.90
2023-02-11T22:42:38.035Z,11.00
2023-02-11T22:46:20.085Z,11.00
2023-02-11T22:50:01.925Z,11.00
2023-02-11T22:53:44.455Z,10.90
2023-02-11T22:57:26.352Z,10.90
2023-02-11T23:01:08.599Z,10.90
2023-02-11T23:04:50.509Z,10.80
2023-02-11T23:08:32.869Z,10.80
2023-02-11T23:12:14.614Z,10.80
2023-02-11T23:15:56.691Z,10.80
2023-02-11T23:19:39.182Z,10.80
2023-02-11T23:23:20.932Z,10.70
2023-02-11T23:27:02.800Z,10.70
2023-02-11T23:30:44.592Z,10.60
2023-02-11T23:34:26.405Z,10.60
2023-02-11T23:38:08.180Z,10.60
2023-02-11T23:41:52.456Z,10.60
2023-02-11T23:45:35.386Z,10.60
2023-02-11T23:49:17.301Z,10.60
2023-02-11T23:52:59.020Z,10.70
2023-02-11T23:56:42.568Z,10.60
